Terminal Aerodrome Forecast
Issued by NWS Charleston, WV

Home | Current Version | Previous Version | Text Only | Print | Product List | Glossary On
Versions: 1 2 3 4 5 6 7 8 9 10 11 12 13 14 15 16 17 18 19 20 21 22 23
000
FTUS41 KRLX 261739
TAFBKW
TAF
KBKW 261739Z 2618/2718 VRB06KT 5SM -SHRA SCT016 BKN040
     FM262000 24005KT 3SM -TSRA BKN040CB
     FM262200 23004KT P6SM VCTS BKN040CB
      TEMPO 2622/2624 4SM -SHRA OVC030
     FM270200 20004KT P6SM BKN090
     FM271600 23004KT P6SM -SHRA BKN045
     FM271700 23004KT P6SM -SHRA VCTS BKN050CB=

USA.gov is the U.S. government's official web portal to all federal, state and local government web resources and services.